sensor_id;sensor_type;location;lat;lon;timestamp;P1;durP1;ratioP1;P2;durP2;ratioP2
10096;SDS011;5087;42.662;23.466;2023-04-24T00:01:49;1.90;;;1.90;;
10096;SDS011;5087;42.662;23.466;2023-04-24T00:04:17;1.90;;;1.90;;
10096;SDS011;5087;42.662;23.466;2023-04-24T00:06:45;1.80;;;1.80;;
10096;SDS011;5087;42.662;23.466;2023-04-24T00:09:14;2.27;;;2.27;;
10096;SDS011;5087;42.662;23.466;2023-04-24T00:11:44;2.53;;;2.53;;
10096;SDS011;5087;42.662;23.466;2023-04-24T00:14:11;2.10;;;2.10;;
10096;SDS011;5087;42.662;23.466;2023-04-24T00:16:38;1.70;;;1.70;;
10096;SDS011;5087;42.662;23.466;2023-04-24T00:19:05;1.70;;;1.70;;
10096;SDS011;5087;42.662;23.466;2023-04-24T00:21:33;1.73;;;1.73;;
10096;SDS011;5087;42.662;23.466;2023-04-24T00:24:01;1.93;;;1.93;;
10096;SDS011;5087;42.662;23.466;2023-04-24T00:26:28;1.70;;;1.70;;
10096;SDS011;5087;42.662;23.466;2023-04-24T00:28:55;1.20;;;1.20;;
10096;SDS011;5087;42.662;23.466;2023-04-24T00:31:22;1.10;;;1.10;;
10096;SDS011;5087;42.662;23.466;2023-04-24T00:33:49;1.07;;;1.07;;
10096;SDS011;5087;42.662;23.466;2023-04-24T00:36:16;1.10;;;1.10;;
10096;SDS011;5087;42.662;23.466;2023-04-24T00:38:44;1.10;;;1.10;;
10096;SDS011;5087;42.662;23.466;2023-04-24T00:41:14;1.00;;;1.00;;
10096;SDS011;5087;42.662;23.466;2023-04-24T00:43:44;0.90;;;0.90;;
10096;SDS011;5087;42.662;23.466;2023-04-24T00:46:11;0.90;;;0.90;;
10096;SDS011;5087;42.662;23.466;2023-04-24T00:48:39;1.00;;;1.00;;
10096;SDS011;5087;42.662;23.466;2023-04-24T00:51:06;1.10;;;1.10;;
10096;SDS011;5087;42.662;23.466;2023-04-24T00:53:33;1.10;;;1.10;;
10096;SDS011;5087;42.662;23.466;2023-04-24T00:56:01;1.17;;;1.17;;
10096;SDS011;5087;42.662;23.466;2023-04-24T00:58:30;1.00;;;1.00;;
10096;SDS011;5087;42.662;23.466;2023-04-24T01:00:57;1.40;;;1.40;;
10096;SDS011;5087;42.662;23.466;2023-04-24T01:03:27;1.27;;;1.27;;
10096;SDS011;5087;42.662;23.466;2023-04-24T01:05:55;1.30;;;1.30;;
10096;SDS011;5087;42.662;23.466;2023-04-24T01:08:22;1.50;;;1.50;;
10096;SDS011;5087;42.662;23.466;2023-04-24T01:10:50;1.40;;;1.40;;
10096;SDS011;5087;42.662;23.466;2023-04-24T01:13:18;1.40;;;1.40;;
10096;SDS011;5087;42.662;23.466;2023-04-24T01:15:47;1.30;;;1.30;;
10096;SDS011;5087;42.662;23.466;2023-04-24T01:18:15;1.50;;;1.50;;
10096;SDS011;5087;42.662;23.466;2023-04-24T01:20:49;1.60;;;1.60;;
10096;SDS011;5087;42.662;23.466;2023-04-24T01:23:19;1.70;;;1.70;;
10096;SDS011;5087;42.662;23.466;2023-04-24T01:25:46;1.70;;;1.70;;
10096;SDS011;5087;42.662;23.466;2023-04-24T01:28:13;1.80;;;1.80;;
10096;SDS011;5087;42.662;23.466;2023-04-24T01:30:40;2.30;;;2.30;;
10096;SDS011;5087;42.662;23.466;2023-04-24T01:33:07;1.90;;;1.90;;
10096;SDS011;5087;42.662;23.466;2023-04-24T01:35:35;2.30;;;2.30;;
10096;SDS011;5087;42.662;23.466;2023-04-24T01:38:02;2.20;;;2.20;;
10096;SDS011;5087;42.662;23.466;2023-04-24T01:40:32;2.17;;;2.17;;
10096;SDS011;5087;42.662;23.466;2023-04-24T01:42:59;2.30;;;2.30;;
10096;SDS011;5087;42.662;23.466;2023-04-24T01:45:29;2.40;;;2.40;;
10096;SDS011;5087;42.662;23.466;2023-04-24T01:47:56;2.30;;;2.30;;
10096;SDS011;5087;42.662;23.466;2023-04-24T01:50:23;2.20;;;2.20;;
10096;SDS011;5087;42.662;23.466;2023-04-24T01:52:50;1.60;;;1.60;;
10096;SDS011;5087;42.662;23.466;2023-04-24T01:55:17;1.90;;;1.90;;
10096;SDS011;5087;42.662;23.466;2023-04-24T01:57:45;1.50;;;1.50;;
10096;SDS011;5087;42.662;23.466;2023-04-24T02:00:13;1.50;;;1.50;;
10096;SDS011;5087;42.662;23.466;2023-04-24T02:02:40;1.20;;;1.20;;
10096;SDS011;5087;42.662;23.466;2023-04-24T02:05:07;1.10;;;1.10;;
10096;SDS011;5087;42.662;23.466;2023-04-24T02:07:37;1.00;;;1.00;;
10096;SDS011;5087;42.662;23.466;2023-04-24T02:10:07;0.93;;;0.93;;
10096;SDS011;5087;42.662;23.466;2023-04-24T02:12:35;0.87;;;0.87;;
10096;SDS011;5087;42.662;23.466;2023-04-24T02:15:04;0.63;;;0.63;;
10096;SDS011;5087;42.662;23.466;2023-04-24T02:17:32;1.37;;;1.17;;
10096;SDS011;5087;42.662;23.466;2023-04-24T02:19:59;0.70;;;0.70;;
10096;SDS011;5087;42.662;23.466;2023-04-24T02:22:26;0.90;;;0.90;;
10096;SDS011;5087;42.662;23.466;2023-04-24T02:24:53;0.60;;;0.60;;
10096;SDS011;5087;42.662;23.466;2023-04-24T02:27:20;4.93;;;2.03;;
10096;SDS011;5087;42.662;23.466;2023-04-24T02:29:47;0.80;;;0.80;;
10096;SDS011;5087;42.662;23.466;2023-04-24T02:32:16;0.70;;;0.70;;
10096;SDS011;5087;42.662;23.466;2023-04-24T02:34:43;0.70;;;0.70;;
10096;SDS011;5087;42.662;23.466;2023-04-24T02:37:11;0.80;;;0.80;;
10096;SDS011;5087;42.662;23.466;2023-04-24T02:39:38;0.70;;;0.70;;
10096;SDS011;5087;42.662;23.466;2023-04-24T02:42:05;0.90;;;0.90;;
10096;SDS011;5087;42.662;23.466;2023-04-24T02:44:34;0.70;;;0.70;;
10096;SDS011;5087;42.662;23.466;2023-04-24T02:47:04;0.80;;;0.80;;
10096;SDS011;5087;42.662;23.466;2023-04-24T02:49:32;1.00;;;1.00;;
10096;SDS011;5087;42.662;23.466;2023-04-24T02:51:59;0.80;;;0.80;;
10096;SDS011;5087;42.662;23.466;2023-04-24T02:54:26;0.93;;;0.93;;
10096;SDS011;5087;42.662;23.466;2023-04-24T02:56:53;0.80;;;0.80;;
10096;SDS011;5087;42.662;23.466;2023-04-24T02:59:22;1.00;;;1.00;;
10096;SDS011;5087;42.662;23.466;2023-04-24T03:01:49;1.20;;;1.20;;
10096;SDS011;5087;42.662;23.466;2023-04-24T03:04:16;1.20;;;1.20;;
10096;SDS011;5087;42.662;23.466;2023-04-24T03:06:47;1.30;;;1.30;;
10096;SDS011;5087;42.662;23.466;2023-04-24T03:09:16;1.40;;;1.40;;
10096;SDS011;5087;42.662;23.466;2023-04-24T03:11:43;1.40;;;1.40;;
10096;SDS011;5087;42.662;23.466;2023-04-24T03:14:10;1.50;;;1.50;;
10096;SDS011;5087;42.662;23.466;2023-04-24T03:16:37;1.10;;;1.10;;
10096;SDS011;5087;42.662;23.466;2023-04-24T03:19:05;1.47;;;1.47;;
10096;SDS011;5087;42.662;23.466;2023-04-24T03:21:38;1.30;;;1.30;;
10096;SDS011;5087;42.662;23.466;2023-04-24T03:24:08;1.30;;;1.30;;
10096;SDS011;5087;42.662;23.466;2023-04-24T03:26:36;1.43;;;1.43;;
10096;SDS011;5087;42.662;23.466;2023-04-24T03:29:21;1.60;;;1.60;;
10096;SDS011;5087;42.662;23.466;2023-04-24T03:31:48;1.83;;;1.83;;
10096;SDS011;5087;42.662;23.466;2023-04-24T03:34:18;2.03;;;2.03;;
10096;SDS011;5087;42.662;23.466;2023-04-24T03:36:45;2.50;;;2.50;;
10096;SDS011;5087;42.662;23.466;2023-04-24T03:39:21;2.50;;;2.50;;
10096;SDS011;5087;42.662;23.466;2023-04-24T03:41:53;2.30;;;2.30;;
10096;SDS011;5087;42.662;23.466;2023-04-24T03:44:25;2.30;;;2.30;;
10096;SDS011;5087;42.662;23.466;2023-04-24T03:46:52;2.30;;;2.30;;
10096;SDS011;5087;42.662;23.466;2023-04-24T03:49:21;2.03;;;2.03;;
10096;SDS011;5087;42.662;23.466;2023-04-24T03:51:49;2.40;;;2.40;;
10096;SDS011;5087;42.662;23.466;2023-04-24T03:54:25;2.20;;;2.20;;
10096;SDS011;5087;42.662;23.466;2023-04-24T03:56:53;1.80;;;1.80;;
10096;SDS011;5087;42.662;23.466;2023-04-24T03:59:21;1.87;;;1.87;;
10096;SDS011;5087;42.662;23.466;2023-04-24T04:02:01;1.90;;;1.90;;
10096;SDS011;5087;42.662;23.466;2023-04-24T04:04:28;2.00;;;2.00;;
10096;SDS011;5087;42.662;23.466;2023-04-24T04:06:55;2.20;;;2.20;;
10096;SDS011;5087;42.662;23.466;2023-04-24T04:09:26;1.63;;;1.63;;
10096;SDS011;5087;42.662;23.466;2023-04-24T04:11:54;1.80;;;1.80;;
10096;SDS011;5087;42.662;23.466;2023-04-24T04:14:21;1.50;;;1.50;;
10096;SDS011;5087;42.662;23.466;2023-04-24T04:16:49;1.70;;;1.70;;
10096;SDS011;5087;42.662;23.466;2023-04-24T04:19:16;1.87;;;1.87;;
10096;SDS011;5087;42.662;23.466;2023-04-24T04:21:44;1.77;;;1.77;;
10096;SDS011;5087;42.662;23.466;2023-04-24T04:24:27;1.80;;;1.80;;
10096;SDS011;5087;42.662;23.466;2023-04-24T04:26:57;2.00;;;2.00;;
10096;SDS011;5087;42.662;23.466;2023-04-24T04:29:32;2.03;;;2.03;;
10096;SDS011;5087;42.662;23.466;2023-04-24T04:32:02;2.40;;;2.40;;
10096;SDS011;5087;42.662;23.466;2023-04-24T04:34:30;1.60;;;1.60;;
10096;SDS011;5087;42.662;23.466;2023-04-24T04:37:00;1.40;;;1.40;;
10096;SDS011;5087;42.662;23.466;2023-04-24T04:39:47;1.10;;;1.10;;
10096;SDS011;5087;42.662;23.466;2023-04-24T04:42:21;1.10;;;1.10;;
10096;SDS011;5087;42.662;23.466;2023-04-24T04:44:49;1.10;;;1.10;;
10096;SDS011;5087;42.662;23.466;2023-04-24T04:47:21;1.50;;;1.50;;
10096;SDS011;5087;42.662;23.466;2023-04-24T04:49:50;2.10;;;2.10;;
10096;SDS011;5087;42.662;23.466;2023-04-24T04:52:20;2.23;;;2.23;;
10096;SDS011;5087;42.662;23.466;2023-04-24T04:54:56;2.60;;;2.60;;
10096;SDS011;5087;42.662;23.466;2023-04-24T04:57:30;3.10;;;3.10;;
10096;SDS011;5087;42.662;23.466;2023-04-24T04:59:57;3.40;;;3.40;;
10096;SDS011;5087;42.662;23.466;2023-04-24T05:02:37;3.63;;;3.63;;
10096;SDS011;5087;42.662;23.466;2023-04-24T05:05:04;4.50;;;4.30;;
10096;SDS011;5087;42.662;23.466;2023-04-24T05:07:32;4.17;;;4.07;;
10096;SDS011;5087;42.662;23.466;2023-04-24T05:10:00;4.50;;;4.40;;
10096;SDS011;5087;42.662;23.466;2023-04-24T05:12:28;4.80;;;4.70;;
10096;SDS011;5087;42.662;23.466;2023-04-24T05:14:56;4.80;;;4.70;;
10096;SDS011;5087;42.662;23.466;2023-04-24T05:17:26;4.80;;;4.70;;
10096;SDS011;5087;42.662;23.466;2023-04-24T05:19:55;4.60;;;4.50;;
10096;SDS011;5087;42.662;23.466;2023-04-24T05:22:23;4.60;;;4.50;;
10096;SDS011;5087;42.662;23.466;2023-04-24T05:24:51;4.50;;;4.40;;
10096;SDS011;5087;42.662;23.466;2023-04-24T05:27:38;4.77;;;4.67;;
10096;SDS011;5087;42.662;23.466;2023-04-24T05:30:13;5.03;;;4.93;;
10096;SDS011;5087;42.662;23.466;2023-04-24T05:32:41;4.80;;;4.70;;
10096;SDS011;5087;42.662;23.466;2023-04-24T05:35:08;4.73;;;4.63;;
10096;SDS011;5087;42.662;23.466;2023-04-24T05:37:35;4.80;;;4.70;;
10096;SDS011;5087;42.662;23.466;2023-04-24T05:40:03;4.93;;;4.83;;
10096;SDS011;5087;42.662;23.466;2023-04-24T05:42:34;5.20;;;5.10;;
10096;SDS011;5087;42.662;23.466;2023-04-24T05:45:03;4.80;;;4.70;;
10096;SDS011;5087;42.662;23.466;2023-04-24T05:47:30;4.97;;;4.87;;
10096;SDS011;5087;42.662;23.466;2023-04-24T05:49:58;4.97;;;4.87;;
10096;SDS011;5087;42.662;23.466;2023-04-24T05:52:25;4.77;;;4.67;;
10096;SDS011;5087;42.662;23.466;2023-04-24T05:54:52;4.80;;;4.70;;
10096;SDS011;5087;42.662;23.466;2023-04-24T05:57:23;4.40;;;4.30;;
10096;SDS011;5087;42.662;23.466;2023-04-24T05:59:58;4.90;;;4.80;;
10096;SDS011;5087;42.662;23.466;2023-04-24T06:02:30;5.60;;;5.50;;
10096;SDS011;5087;42.662;23.466;2023-04-24T06:05:03;5.30;;;5.20;;
10096;SDS011;5087;42.662;23.466;2023-04-24T06:07:30;5.80;;;5.70;;
10096;SDS011;5087;42.662;23.466;2023-04-24T06:09:57;6.23;;;6.13;;
10096;SDS011;5087;42.662;23.466;2023-04-24T06:12:25;5.63;;;5.53;;
10096;SDS011;5087;42.662;23.466;2023-04-24T06:14:58;5.70;;;5.60;;
10096;SDS011;5087;42.662;23.466;2023-04-24T06:17:47;5.73;;;5.63;;
10096;SDS011;5087;42.662;23.466;2023-04-24T06:20:16;5.90;;;5.80;;
10096;SDS011;5087;42.662;23.466;2023-04-24T06:22:43;6.10;;;6.00;;
10096;SDS011;5087;42.662;23.466;2023-04-24T06:25:10;5.63;;;5.53;;
10096;SDS011;5087;42.662;23.466;2023-04-24T06:27:37;5.67;;;5.57;;
10096;SDS011;5087;42.662;23.466;2023-04-24T06:30:04;5.73;;;5.63;;
10096;SDS011;5087;42.662;23.466;2023-04-24T06:32:32;5.80;;;5.70;;
10096;SDS011;5087;42.662;23.466;2023-04-24T06:35:01;5.80;;;5.70;;
10096;SDS011;5087;42.662;23.466;2023-04-24T06:37:28;5.60;;;5.50;;
10096;SDS011;5087;42.662;23.466;2023-04-24T06:39:55;5.00;;;4.90;;
10096;SDS011;5087;42.662;23.466;2023-04-24T06:42:23;6.30;;;6.10;;
10096;SDS011;5087;42.662;23.466;2023-04-24T06:44:52;4.50;;;4.40;;
10096;SDS011;5087;42.662;23.466;2023-04-24T06:47:19;4.70;;;4.60;;
10096;SDS011;5087;42.662;23.466;2023-04-24T06:49:46;4.70;;;4.60;;
10096;SDS011;5087;42.662;23.466;2023-04-24T06:52:14;6.40;;;6.30;;
10096;SDS011;5087;42.662;23.466;2023-04-24T06:54:44;6.37;;;6.27;;
10096;SDS011;5087;42.662;23.466;2023-04-24T06:57:11;6.40;;;6.30;;
10096;SDS011;5087;42.662;23.466;2023-04-24T06:59:38;5.90;;;5.80;;
10096;SDS011;5087;42.662;23.466;2023-04-24T07:02:05;6.60;;;6.40;;
10096;SDS011;5087;42.662;23.466;2023-04-24T07:04:31;5.13;;;5.03;;
10096;SDS011;5087;42.662;23.466;2023-04-24T07:07:00;6.13;;;5.77;;
10096;SDS011;5087;42.662;23.466;2023-04-24T07:09:29;6.27;;;6.07;;
10096;SDS011;5087;42.662;23.466;2023-04-24T07:11:55;5.90;;;5.80;;
10096;SDS011;5087;42.662;23.466;2023-04-24T07:14:26;6.10;;;6.00;;
10096;SDS011;5087;42.662;23.466;2023-04-24T07:16:53;5.50;;;5.40;;
10096;SDS011;5087;42.662;23.466;2023-04-24T07:19:21;5.13;;;5.03;;
10096;SDS011;5087;42.662;23.466;2023-04-24T07:21:48;5.00;;;4.90;;
10096;SDS011;5087;42.662;23.466;2023-04-24T07:24:16;5.67;;;5.57;;
10096;SDS011;5087;42.662;23.466;2023-04-24T07:26:46;6.00;;;5.90;;
10096;SDS011;5087;42.662;23.466;2023-04-24T07:29:13;6.43;;;6.33;;
10096;SDS011;5087;42.662;23.466;2023-04-24T07:31:41;5.30;;;5.20;;
10096;SDS011;5087;42.662;23.466;2023-04-24T07:34:14;5.10;;;5.00;;
10096;SDS011;5087;42.662;23.466;2023-04-24T07:36:44;5.37;;;5.17;;
10096;SDS011;5087;42.662;23.466;2023-04-24T07:39:11;5.20;;;5.10;;
10096;SDS011;5087;42.662;23.466;2023-04-24T07:41:38;5.60;;;5.50;;
10096;SDS011;5087;42.662;23.466;2023-04-24T07:44:07;5.23;;;5.13;;
10096;SDS011;5087;42.662;23.466;2023-04-24T07:46:34;4.60;;;4.50;;
10096;SDS011;5087;42.662;23.466;2023-04-24T07:49:01;4.73;;;4.63;;
10096;SDS011;5087;42.662;23.466;2023-04-24T07:51:29;5.40;;;5.30;;
10096;SDS011;5087;42.662;23.466;2023-04-24T07:54:10;5.30;;;5.20;;
10096;SDS011;5087;42.662;23.466;2023-04-24T07:56:46;6.20;;;6.10;;
10096;SDS011;5087;42.662;23.466;2023-04-24T07:59:14;5.67;;;5.57;;
10096;SDS011;5087;42.662;23.466;2023-04-24T08:01:42;5.73;;;5.63;;
10096;SDS011;5087;42.662;23.466;2023-04-24T08:04:14;5.50;;;5.40;;
10096;SDS011;5087;42.662;23.466;2023-04-24T08:06:42;5.30;;;5.20;;
10096;SDS011;5087;42.662;23.466;2023-04-24T08:09:08;5.10;;;5.00;;
10096;SDS011;5087;42.662;23.466;2023-04-24T08:11:36;5.10;;;5.00;;
10096;SDS011;5087;42.662;23.466;2023-04-24T08:14:03;4.60;;;4.50;;
10096;SDS011;5087;42.662;23.466;2023-04-24T08:16:31;4.80;;;4.70;;
10096;SDS011;5087;42.662;23.466;2023-04-24T08:18:59;4.63;;;4.53;;
10096;SDS011;5087;42.662;23.466;2023-04-24T08:21:26;4.77;;;4.67;;
10096;SDS011;5087;42.662;23.466;2023-04-24T08:23:53;4.77;;;4.67;;
10096;SDS011;5087;42.662;23.466;2023-04-24T08:26:20;4.60;;;4.50;;
10096;SDS011;5087;42.662;23.466;2023-04-24T08:28:49;4.50;;;4.40;;
10096;SDS011;5087;42.662;23.466;2023-04-24T08:31:19;3.60;;;3.60;;
10096;SDS011;5087;42.662;23.466;2023-04-24T08:33:48;3.87;;;3.87;;
10096;SDS011;5087;42.662;23.466;2023-04-24T08:36:15;3.87;;;3.87;;
10096;SDS011;5087;42.662;23.466;2023-04-24T08:38:44;3.93;;;3.90;;
10096;SDS011;5087;42.662;23.466;2023-04-24T08:41:12;3.80;;;3.80;;
10096;SDS011;5087;42.662;23.466;2023-04-24T08:43:40;4.40;;;4.30;;
10096;SDS011;5087;42.662;23.466;2023-04-24T08:46:08;3.60;;;3.60;;
10096;SDS011;5087;42.662;23.466;2023-04-24T08:48:35;3.60;;;3.60;;
10096;SDS011;5087;42.662;23.466;2023-04-24T08:51:05;3.33;;;3.33;;
10096;SDS011;5087;42.662;23.466;2023-04-24T08:53:45;3.63;;;3.63;;
10096;SDS011;5087;42.662;23.466;2023-04-24T08:56:13;3.40;;;3.40;;
10096;SDS011;5087;42.662;23.466;2023-04-24T08:58:44;3.30;;;3.30;;
10096;SDS011;5087;42.662;23.466;2023-04-24T09:01:16;3.27;;;3.27;;
10096;SDS011;5087;42.662;23.466;2023-04-24T09:03:50;3.60;;;3.60;;
10096;SDS011;5087;42.662;23.466;2023-04-24T09:06:19;3.50;;;3.50;;
10096;SDS011;5087;42.662;23.466;2023-04-24T09:08:53;3.07;;;3.07;;
10096;SDS011;5087;42.662;23.466;2023-04-24T09:11:24;3.10;;;3.10;;
10096;SDS011;5087;42.662;23.466;2023-04-24T09:13:55;2.97;;;2.97;;
10096;SDS011;5087;42.662;23.466;2023-04-24T09:16:22;2.63;;;2.63;;
10096;SDS011;5087;42.662;23.466;2023-04-24T09:18:51;2.60;;;2.60;;
10096;SDS011;5087;42.662;23.466;2023-04-24T09:21:19;2.30;;;2.30;;
10096;SDS011;5087;42.662;23.466;2023-04-24T09:23:58;2.00;;;2.00;;
10096;SDS011;5087;42.662;23.466;2023-04-24T09:26:28;2.00;;;2.00;;
10096;SDS011;5087;42.662;23.466;2023-04-24T09:28:56;1.87;;;1.87;;
10096;SDS011;5087;42.662;23.466;2023-04-24T09:31:24;1.80;;;1.80;;
10096;SDS011;5087;42.662;23.466;2023-04-24T09:33:53;1.73;;;1.73;;
10096;SDS011;5087;42.662;23.466;2023-04-24T09:36:29;2.30;;;2.30;;
10096;SDS011;5087;42.662;23.466;2023-04-24T09:39:00;2.10;;;2.10;;
10096;SDS011;5087;42.662;23.466;2023-04-24T09:41:27;2.10;;;2.10;;
10096;SDS011;5087;42.662;23.466;2023-04-24T09:43:55;1.80;;;1.80;;
10096;SDS011;5087;42.662;23.466;2023-04-24T09:46:32;1.53;;;1.53;;
10096;SDS011;5087;42.662;23.466;2023-04-24T09:49:04;1.80;;;1.80;;
10096;SDS011;5087;42.662;23.466;2023-04-24T09:51:34;1.90;;;1.90;;
10096;SDS011;5087;42.662;23.466;2023-04-24T09:54:04;1.53;;;1.53;;
10096;SDS011;5087;42.662;23.466;2023-04-24T09:56:37;1.70;;;1.70;;
10096;SDS011;5087;42.662;23.466;2023-04-24T09:59:08;1.50;;;1.50;;
10096;SDS011;5087;42.662;23.466;2023-04-24T10:01:35;1.60;;;1.60;;
10096;SDS011;5087;42.662;23.466;2023-04-24T10:04:03;1.60;;;1.60;;
10096;SDS011;5087;42.662;23.466;2023-04-24T10:06:34;1.30;;;1.30;;
10096;SDS011;5087;42.662;23.466;2023-04-24T10:09:01;1.70;;;1.70;;
10096;SDS011;5087;42.662;23.466;2023-04-24T10:11:30;1.70;;;1.70;;
10096;SDS011;5087;42.662;23.466;2023-04-24T10:13:57;1.60;;;1.60;;
10096;SDS011;5087;42.662;23.466;2023-04-24T10:16:25;1.60;;;1.60;;
10096;SDS011;5087;42.662;23.466;2023-04-24T10:18:53;1.43;;;1.43;;
10096;SDS011;5087;42.662;23.466;2023-04-24T10:21:21;1.50;;;1.50;;
10096;SDS011;5087;42.662;23.466;2023-04-24T10:23:48;1.60;;;1.60;;
10096;SDS011;5087;42.662;23.466;2023-04-24T10:26:15;1.60;;;1.60;;
10096;SDS011;5087;42.662;23.466;2023-04-24T10:28:46;1.30;;;1.30;;
10096;SDS011;5087;42.662;23.466;2023-04-24T10:31:19;1.40;;;1.40;;
10096;SDS011;5087;42.662;23.466;2023-04-24T10:33:46;1.60;;;1.60;;
10096;SDS011;5087;42.662;23.466;2023-04-24T10:36:14;1.40;;;1.40;;
10096;SDS011;5087;42.662;23.466;2023-04-24T10:38:42;1.50;;;1.50;;
10096;SDS011;5087;42.662;23.466;2023-04-24T10:41:12;1.43;;;1.43;;
10096;SDS011;5087;42.662;23.466;2023-04-24T10:43:42;1.30;;;1.30;;
10096;SDS011;5087;42.662;23.466;2023-04-24T10:46:10;1.30;;;1.30;;
10096;SDS011;5087;42.662;23.466;2023-04-24T10:48:43;1.40;;;1.40;;
10096;SDS011;5087;42.662;23.466;2023-04-24T10:51:14;1.40;;;1.40;;
10096;SDS011;5087;42.662;23.466;2023-04-24T10:53:41;1.40;;;1.40;;
10096;SDS011;5087;42.662;23.466;2023-04-24T10:56:09;1.33;;;1.33;;
10096;SDS011;5087;42.662;23.466;2023-04-24T10:58:36;1.30;;;1.30;;
10096;SDS011;5087;42.662;23.466;2023-04-24T11:01:05;1.13;;;1.13;;
10096;SDS011;5087;42.662;23.466;2023-04-24T11:03:34;1.10;;;1.10;;
10096;SDS011;5087;42.662;23.466;2023-04-24T11:06:02;1.10;;;1.10;;
10096;SDS011;5087;42.662;23.466;2023-04-24T11:08:36;1.30;;;1.30;;
10096;SDS011;5087;42.662;23.466;2023-04-24T11:11:07;1.20;;;1.20;;
10096;SDS011;5087;42.662;23.466;2023-04-24T11:16:28;1.20;;;1.20;;
10096;SDS011;5087;42.662;23.466;2023-04-24T11:19:01;1.10;;;1.10;;
10096;SDS011;5087;42.662;23.466;2023-04-24T11:21:30;1.20;;;1.20;;
10096;SDS011;5087;42.662;23.466;2023-04-24T11:23:58;1.10;;;1.10;;
10096;SDS011;5087;42.662;23.466;2023-04-24T11:26:25;1.50;;;1.30;;
10096;SDS011;5087;42.662;23.466;2023-04-24T11:29:05;1.10;;;1.10;;
10096;SDS011;5087;42.662;23.466;2023-04-24T11:34:36;1.30;;;1.30;;
10096;SDS011;5087;42.662;23.466;2023-04-24T11:37:05;1.30;;;1.30;;
10096;SDS011;5087;42.662;23.466;2023-04-24T11:39:36;1.30;;;1.30;;
10096;SDS011;5087;42.662;23.466;2023-04-24T11:42:03;1.30;;;1.30;;
10096;SDS011;5087;42.662;23.466;2023-04-24T11:44:37;1.30;;;1.30;;
10096;SDS011;5087;42.662;23.466;2023-04-24T12:12:27;10.27;;;9.97;;
10096;SDS011;5087;42.662;23.466;2023-04-24T12:14:55;8.80;;;8.60;;
10096;SDS011;5087;42.662;23.466;2023-04-24T12:17:24;10.10;;;9.80;;
10096;SDS011;5087;42.662;23.466;2023-04-24T12:19:56;7.20;;;7.00;;
10096;SDS011;5087;42.662;23.466;2023-04-24T12:22:25;7.43;;;7.23;;
10096;SDS011;5087;42.662;23.466;2023-04-24T12:24:56;6.40;;;6.30;;
10096;SDS011;5087;42.662;23.466;2023-04-24T12:27:24;7.10;;;6.90;;
10096;SDS011;5087;42.662;23.466;2023-04-24T12:29:53;6.80;;;6.70;;
10096;SDS011;5087;42.662;23.466;2023-04-24T12:32:22;7.63;;;7.43;;
10096;SDS011;5087;42.662;23.466;2023-04-24T12:34:50;7.70;;;7.50;;
10096;SDS011;5087;42.662;23.466;2023-04-24T12:37:18;7.40;;;7.20;;
10096;SDS011;5087;42.662;23.466;2023-04-24T12:39:58;6.70;;;6.60;;
10096;SDS011;5087;42.662;23.466;2023-04-24T12:42:27;5.63;;;5.53;;
10096;SDS011;5087;42.662;23.466;2023-04-24T12:44:56;4.20;;;4.10;;
10096;SDS011;5087;42.662;23.466;2023-04-24T12:47:26;2.10;;;2.10;;
10096;SDS011;5087;42.662;23.466;2023-04-24T12:49:53;2.10;;;2.10;;
10096;SDS011;5087;42.662;23.466;2023-04-24T12:52:21;2.30;;;2.30;;
10096;SDS011;5087;42.662;23.466;2023-04-24T12:54:49;2.60;;;2.60;;
10096;SDS011;5087;42.662;23.466;2023-04-24T12:57:17;3.00;;;3.00;;
10096;SDS011;5087;42.662;23.466;2023-04-24T12:59:46;3.07;;;3.07;;
10096;SDS011;5087;42.662;23.466;2023-04-24T13:02:13;2.90;;;2.90;;
10096;SDS011;5087;42.662;23.466;2023-04-24T13:04:43;3.00;;;3.00;;
10096;SDS011;5087;42.662;23.466;2023-04-24T13:07:11;2.70;;;2.70;;
10096;SDS011;5087;42.662;23.466;2023-04-24T13:09:39;3.23;;;3.23;;
10096;SDS011;5087;42.662;23.466;2023-04-24T13:12:06;3.10;;;3.10;;
10096;SDS011;5087;42.662;23.466;2023-04-24T13:14:37;4.20;;;4.10;;
10096;SDS011;5087;42.662;23.466;2023-04-24T13:17:06;3.00;;;3.00;;
10096;SDS011;5087;42.662;23.466;2023-04-24T13:19:38;3.10;;;3.10;;
10096;SDS011;5087;42.662;23.466;2023-04-24T13:22:08;3.30;;;3.30;;
10096;SDS011;5087;42.662;23.466;2023-04-24T13:24:36;3.10;;;3.10;;
10096;SDS011;5087;42.662;23.466;2023-04-24T13:27:05;3.20;;;3.20;;
10096;SDS011;5087;42.662;23.466;2023-04-24T13:29:32;3.10;;;3.10;;
10096;SDS011;5087;42.662;23.466;2023-04-24T13:31:59;3.00;;;3.00;;
10096;SDS011;5087;42.662;23.466;2023-04-24T13:34:28;2.80;;;2.80;;
10096;SDS011;5087;42.662;23.466;2023-04-24T13:36:56;2.80;;;2.80;;
10096;SDS011;5087;42.662;23.466;2023-04-24T13:39:24;3.10;;;3.10;;
10096;SDS011;5087;42.662;23.466;2023-04-24T13:41:52;3.40;;;3.40;;
10096;SDS011;5087;42.662;23.466;2023-04-24T13:44:20;2.50;;;2.50;;
10096;SDS011;5087;42.662;23.466;2023-04-24T13:46:51;2.60;;;2.60;;
10096;SDS011;5087;42.662;23.466;2023-04-24T13:49:22;2.50;;;2.50;;
10096;SDS011;5087;42.662;23.466;2023-04-24T13:51:52;2.70;;;2.70;;
10096;SDS011;5087;42.662;23.466;2023-04-24T13:54:20;2.50;;;2.50;;
10096;SDS011;5087;42.662;23.466;2023-04-24T13:56:50;2.00;;;2.00;;
10096;SDS011;5087;42.662;23.466;2023-04-24T13:59:19;2.30;;;2.30;;
10096;SDS011;5087;42.662;23.466;2023-04-24T14:01:46;2.30;;;2.30;;
10096;SDS011;5087;42.662;23.466;2023-04-24T14:04:14;2.17;;;2.17;;
10096;SDS011;5087;42.662;23.466;2023-04-24T14:06:41;2.20;;;2.20;;
10096;SDS011;5087;42.662;23.466;2023-04-24T14:09:10;2.83;;;2.83;;
10096;SDS011;5087;42.662;23.466;2023-04-24T14:11:38;2.90;;;2.90;;
10096;SDS011;5087;42.662;23.466;2023-04-24T14:14:06;3.40;;;3.40;;
10096;SDS011;5087;42.662;23.466;2023-04-24T14:16:33;4.37;;;4.27;;
10096;SDS011;5087;42.662;23.466;2023-04-24T14:19:01;4.93;;;4.83;;
10096;SDS011;5087;42.662;23.466;2023-04-24T14:21:28;4.20;;;4.10;;
10096;SDS011;5087;42.662;23.466;2023-04-24T14:23:55;4.37;;;4.27;;
10096;SDS011;5087;42.662;23.466;2023-04-24T14:26:27;4.20;;;4.10;;
10096;SDS011;5087;42.662;23.466;2023-04-24T14:28:55;3.70;;;3.70;;
10096;SDS011;5087;42.662;23.466;2023-04-24T14:31:24;3.30;;;3.30;;
10096;SDS011;5087;42.662;23.466;2023-04-24T14:33:51;3.30;;;3.30;;
10096;SDS011;5087;42.662;23.466;2023-04-24T14:36:19;2.90;;;2.90;;
10096;SDS011;5087;42.662;23.466;2023-04-24T14:38:46;3.00;;;3.00;;
10096;SDS011;5087;42.662;23.466;2023-04-24T14:41:16;2.60;;;2.60;;
10096;SDS011;5087;42.662;23.466;2023-04-24T14:43:44;3.30;;;3.30;;
10096;SDS011;5087;42.662;23.466;2023-04-24T14:46:12;3.50;;;3.50;;
10096;SDS011;5087;42.662;23.466;2023-04-24T14:48:39;3.70;;;3.70;;
10096;SDS011;5087;42.662;23.466;2023-04-24T14:51:07;3.60;;;3.57;;
10096;SDS011;5087;42.662;23.466;2023-04-24T14:53:34;3.30;;;3.30;;
10096;SDS011;5087;42.662;23.466;2023-04-24T14:56:01;3.47;;;3.40;;
10096;SDS011;5087;42.662;23.466;2023-04-24T14:58:28;2.83;;;2.80;;
10096;SDS011;5087;42.662;23.466;2023-04-24T15:00:57;2.50;;;2.50;;
10096;SDS011;5087;42.662;23.466;2023-04-24T15:03:24;3.70;;;3.70;;
10096;SDS011;5087;42.662;23.466;2023-04-24T15:05:53;3.83;;;3.83;;
10096;SDS011;5087;42.662;23.466;2023-04-24T15:08:20;3.97;;;3.87;;
10096;SDS011;5087;42.662;23.466;2023-04-24T15:10:47;3.50;;;3.50;;
10096;SDS011;5087;42.662;23.466;2023-04-24T15:13:15;4.60;;;4.50;;
10096;SDS011;5087;42.662;23.466;2023-04-24T15:15:42;5.47;;;4.97;;
10096;SDS011;5087;42.662;23.466;2023-04-24T15:18:11;4.30;;;4.20;;
10096;SDS011;5087;42.662;23.466;2023-04-24T15:20:39;4.47;;;4.37;;
10096;SDS011;5087;42.662;23.466;2023-04-24T15:23:07;4.90;;;4.80;;
10096;SDS011;5087;42.662;23.466;2023-04-24T15:25:35;5.00;;;4.90;;
10096;SDS011;5087;42.662;23.466;2023-04-24T15:28:03;4.70;;;4.60;;
10096;SDS011;5087;42.662;23.466;2023-04-24T15:30:31;4.30;;;4.20;;